Jarrell, Texas
Current Conditions -  °F | °C
As of 3:50 PM on Wednesday 28 Jan 2015 (Local Time) from KGTU Reporting Station
Clear Clear  
Wind Chill: 81°   Ceiling: Unl
Heat Index: 81°   Visibility: 10mi
Dew Point: 37°   Wind: 17mph
Humidity: 21%   Direction: 180°S
Pressure: 30.05"   Gusts: 22mph
Location:  30.82°N, 97.6°W
Report Text: KGTU 282150Z 18015G19KT 10SM CLR 27/03 A3005
Loading
Personal Weather Stations






























Interactive Weather Map New forecast layout! Learn more

10-Day Weather Forecast

Advertisements
Track Severe Weather on mobile